Aérodrome :
LOGIN :

S'inscrire | Disclaimer

   EN    FR    IT 

 










Légende :    VFR   VFR Marginal   IFR   IFR Intensif   IFR Très Intensif
Visi : 
Plafond : 
>= 8 km
>= 3000ft
5 à 8 km
1000 à 3000 ft
1500m à 5 km
500 à 1000 ft
800 à 1500m
200 à 500 ft
< 800m
< 200 ft
Symboles :   Orages  Brouillard  Fortes neiges  Fortes précipitations  Vent > 20 kt
SIGMETs :   Divers  Orages  Givrage  Turbulence  Onde Orograph.  Cendres Volcan.






- Altitude de l'aérodrome : 256 ft
- Code IATA : KUN


EYKA - Kaunas

DERNIER METAR :
  • 010750Z 17004KT 120V210 5000 BR OVC009 01/M01 Q1025 R08/290095

METARs EXPIRÉS :
  • 010720Z 17004KT 150V210 4800 BR BKN009 OVC010 01/M01 Q1024 R08/290095
  • 010650Z 17004KT 120V210 4600 BR OVC008 01/M01 Q1024 R08/290095
  • 010620Z 18004KT 150V210 4400 BR OVC008 01/M01 Q1024 R08/290095
  • 010550Z 19004KT 150V250 4300 BR OVC008 01/M01 Q1023 R08/290095
  • 010520Z 18004KT 120V210 4100 BR BKN007 OVC016 01/M01 Q1023 R08/290095

TAF TAF EYKA
Valide du 01 à 06h jusqu'au 02 à 06h UTC


010500Z 0106/0206 18010KT 5000 BR OVC005
TEMPO 0106/0109 BKN002
BECMG 0110/0111 BKN015
TEMPO 0118/0123 1500 BKN003



MET'MAP, la Météo Aéronautique d'un coup d'oeil ! - Copyright ORBIFLY Décembre 2007 - Disclaimer

ORBIFLY MET'MAP TEAM :

Programmation & Développement : Alexandra Zaïnal
Sur une idée originale de : Baudouin d'Aumeries
Assistance à la programmation : Marc-Olivier Méhu
Soutien technique & logistique : Manuel Goepfert

Contact : metmap@orbifly.com




SOURCES & CREDITS :

   NOAA